Time;durP1;ratioP1;P1;durP2;ratioP2;P2;SDS_P1;SDS_P2;PMS_P1;PMS_P2;Temp;Humidity;BMP_temperature;BMP_pressure;BME280_temperature;BME280_humidity;BME280_pressure;Samples;Min_cycle;Max_cycle;Signal;HPM_P1;HPM_P2
2023/01/12 00:01:49;;;;;;;16.35;2.67;;;7.80;99.90;;;;;;5121247;27;20039;-77
2023/01/12 00:04:15;;;;;;;16.25;2.88;;;8.10;99.90;;;;;;5104975;27;20122;-76
2023/01/12 00:06:41;;;;;;;14.50;2.92;;;7.90;99.90;;;;;;5105089;28;20046;-79
2023/01/12 00:09:08;;;;;;;14.95;2.33;;;7.90;99.90;;;;;;5108326;28;20031;-78
2023/01/12 00:11:41;;;;;;;15.63;3.30;;;8.40;99.90;;;;;;5119474;27;20080;-77
2023/01/12 00:14:08;;;;;;;13.95;3.28;;;8.20;99.90;;;;;;5085731;28;20152;-78
2023/01/12 00:16:34;;;;;;;14.75;2.58;;;7.90;99.90;;;;;;5117678;27;20068;-77
2023/01/12 00:19:01;;;;;;;12.32;2.47;;;7.90;99.90;;;;;;5121546;27;20035;-77
2023/01/12 00:21:26;;;;;;;20.15;3.10;;;8.00;99.90;;;;;;5091520;28;20066;-77
2023/01/12 00:23:52;;;;;;;18.05;3.35;;;8.00;99.90;;;;;;5121082;27;20286;-77
2023/01/12 00:26:18;;;;;;;17.02;2.40;;;8.40;99.90;;;;;;5114387;27;20066;-78
2023/01/12 00:28:43;;;;;;;24.13;3.40;;;7.80;99.90;;;;;;5122174;27;20072;-77
2023/01/12 00:31:10;;;;;;;18.40;3.15;;;8.10;99.90;;;;;;5125575;27;20042;-76
2023/01/12 00:33:39;;;;;;;16.27;2.38;;;7.90;99.90;;;;;;5122165;27;20045;-77
2023/01/12 00:36:07;;;;;;;15.52;3.28;;;8.40;99.90;;;;;;5130664;27;20073;-78
2023/01/12 00:38:37;;;;;;;19.23;3.45;;;8.40;99.90;;;;;;5107015;27;20038;-77
2023/01/12 00:41:11;;;;;;;18.05;3.60;;;8.30;99.90;;;;;;5097228;27;20035;-77
2023/01/12 00:46:34;;;;;;;21.90;3.63;;;8.30;99.90;;;;;;5113761;27;20253;-77
2023/01/12 00:49:00;;;;;;;20.40;4.60;;;9.50;99.90;;;;;;5125505;27;20042;-78
2023/01/12 00:51:25;;;;;;;19.05;4.28;;;8.40;99.90;;;;;;5077924;27;20191;-77
2023/01/12 00:53:51;;;;;;;19.33;3.00;;;7.90;99.90;;;;;;5090781;27;20103;-78
2023/01/12 00:56:17;;;;;;;25.45;3.65;;;8.40;99.90;;;;;;5080197;27;20071;-79
2023/01/12 00:58:42;;;;;;;23.15;4.05;;;8.40;99.90;;;;;;5114874;27;20103;-79
2023/01/12 01:01:08;;;;;;;18.27;2.63;;;7.90;99.90;;;;;;5123583;27;20106;-77
2023/01/12 01:03:34;;;;;;;20.95;3.10;;;8.10;99.90;;;;;;5111951;28;20047;-76
2023/01/12 01:06:02;;;;;;;14.40;3.08;;;8.30;99.90;;;;;;5109922;28;20072;-76
2023/01/12 01:08:28;;;;;;;17.55;3.17;;;7.80;99.90;;;;;;5122538;27;20255;-76
2023/01/12 01:11:09;;;;;;;18.35;3.22;;;8.00;99.90;;;;;;5113621;28;20257;-78
2023/01/12 01:13:36;;;;;;;14.80;2.70;;;8.30;99.90;;;;;;5104286;28;20160;-78
2023/01/12 01:16:03;;;;;;;14.35;3.35;;;8.10;99.90;;;;;;5127238;28;20028;-77
2023/01/12 01:18:31;;;;;;;18.58;2.80;;;8.30;99.90;;;;;;5102048;28;20023;-77
2023/01/12 01:20:57;;;;;;;18.92;3.42;;;8.10;99.90;;;;;;5120585;28;20110;-76
2023/01/12 01:23:24;;;;;;;14.60;3.28;;;8.30;99.90;;;;;;5083722;28;20059;-77
2023/01/12 01:25:50;;;;;;;16.10;3.00;;;7.80;99.90;;;;;;5116060;28;20054;-76
2023/01/12 01:28:22;;;;;;;13.18;2.67;;;7.90;99.90;;;;;;5105101;28;20323;-76
2023/01/12 01:30:48;;;;;;;13.65;3.35;;;8.30;99.90;;;;;;5085127;28;20034;-77
2023/01/12 01:33:14;;;;;;;17.23;2.90;;;8.00;99.90;;;;;;5115979;28;20059;-77
2023/01/12 01:35:40;;;;;;;12.15;3.22;;;7.80;99.90;;;;;;5087607;28;20681;-77
2023/01/12 01:38:06;;;;;;;15.00;2.75;;;8.00;99.90;;;;;;5071183;28;20067;-76
2023/01/12 01:40:32;;;;;;;14.32;2.75;;;7.80;99.90;;;;;;5085354;28;20039;-78
2023/01/12 01:42:58;;;;;;;16.33;2.95;;;8.30;99.90;;;;;;5101210;28;20043;-77
2023/01/12 01:45:24;;;;;;;15.75;3.08;;;8.00;99.90;;;;;;5104137;28;20198;-77
2023/01/12 01:48:01;;;;;;;14.95;3.05;;;8.30;99.90;;;;;;5120047;28;20037;-77
2023/01/12 01:50:39;;;;;;;16.90;2.42;;;8.30;99.90;;;;;;5120908;28;20039;-77
2023/01/12 01:53:10;;;;;;;16.23;3.70;;;8.20;99.90;;;;;;5123319;27;20090;-77
2023/01/12 01:55:51;;;;;;;17.48;2.65;;;8.10;99.90;;;;;;5107172;27;20294;-77
2023/01/12 01:58:43;;;;;;;17.38;3.67;;;8.30;99.90;;;;;;5117875;28;20036;-77
2023/01/12 02:01:09;;;;;;;18.40;3.30;;;8.40;99.90;;;;;;5079254;27;20130;-77
2023/01/12 02:03:36;;;;;;;23.85;3.60;;;7.90;99.90;;;;;;5088645;27;20041;-76
2023/01/12 02:06:07;;;;;;;21.25;3.40;;;8.00;99.90;;;;;;5107962;27;20035;-77
2023/01/12 02:08:51;;;;;;;17.73;3.03;;;10.20;99.90;;;;;;5084473;28;20076;-77
2023/01/12 02:17:12;;;;;;;23.48;3.78;;;8.50;99.90;;;;;;5109270;27;20027;-77
2023/01/12 02:20:08;;;;;;;17.08;3.33;;;8.30;99.90;;;;;;5107986;27;20035;-78
2023/01/12 02:23:22;;;;;;;14.90;3.35;;;8.60;99.90;;;;;;5105014;28;20124;-78
2023/01/12 02:26:32;;;;;;;20.65;3.92;;;8.00;99.90;;;;;;5045841;28;20082;-77
2023/01/12 02:29:35;;;;;;;18.75;3.75;;;8.60;99.90;;;;;;5106128;28;20032;-78
2023/01/12 02:32:28;;;;;;;16.52;3.90;;;8.10;99.90;;;;;;5123871;27;20039;-78
2023/01/12 02:35:15;;;;;;;17.50;2.72;;;8.20;99.90;;;;;;5129449;27;20076;-78
2023/01/12 02:37:59;;;;;;;18.52;4.57;;;8.70;99.90;;;;;;5122335;27;20039;-78
2023/01/12 02:40:53;;;;;;;15.17;3.30;;;8.50;99.90;;;;;;5118085;28;20065;-78
2023/01/12 02:43:31;;;;;;;20.40;3.35;;;8.50;99.90;;;;;;5105700;28;20151;-78
2023/01/12 02:46:27;;;;;;;22.33;4.00;;;8.70;99.90;;;;;;5108461;28;20039;-79
2023/01/12 02:49:25;;;;;;;19.50;3.00;;;8.70;99.90;;;;;;5114960;27;20211;-78
2023/01/12 02:51:56;;;;;;;21.63;4.15;;;8.80;99.90;;;;;;5122560;27;20150;-78
2023/01/12 02:54:24;;;;;;;23.85;4.45;;;8.60;99.90;;;;;;5127665;27;20128;-77
2023/01/12 02:56:53;;;;;;;16.77;3.63;;;8.90;99.90;;;;;;5107437;27;20059;-78
2023/01/12 02:59:26;;;;;;;24.30;4.72;;;8.20;99.90;;;;;;5109974;27;20036;-78
2023/01/12 03:01:58;;;;;;;24.95;3.95;;;8.90;99.90;;;;;;5121535;28;20083;-79
2023/01/12 03:04:24;;;;;;;18.98;3.42;;;8.60;99.90;;;;;;5110308;27;20031;-80
2023/01/12 03:06:50;;;;;;;24.67;3.75;;;8.90;99.90;;;;;;5095693;27;20031;-79
2023/01/12 03:09:17;;;;;;;19.25;3.20;;;8.30;99.90;;;;;;5135302;27;20035;-80
2023/01/12 03:11:46;;;;;;;22.90;4.38;;;9.00;99.90;;;;;;5104948;28;20046;-79
2023/01/12 03:14:14;;;;;;;21.02;4.05;;;8.50;99.90;;;;;;5121850;27;20283;-78
2023/01/12 03:16:40;;;;;;;19.42;4.07;;;8.40;99.90;;;;;;5087838;28;20035;-78
2023/01/12 03:19:29;;;;;;;17.60;4.25;;;9.00;99.90;;;;;;5103804;27;20062;-77
2023/01/12 03:22:01;;;;;;;19.27;4.18;;;8.40;99.90;;;;;;5142422;27;20257;-78
2023/01/12 03:24:37;;;;;;;15.15;3.25;;;8.40;99.90;;;;;;5131043;27;20055;-78
2023/01/12 03:27:13;;;;;;;17.35;3.70;;;8.50;99.90;;;;;;5127272;27;20302;-77
2023/01/12 03:29:58;;;;;;;16.65;4.40;;;8.60;99.90;;;;;;5129946;27;20062;-79
2023/01/12 03:32:24;;;;;;;20.75;4.20;;;8.90;99.90;;;;;;5112950;27;20086;-78
2023/01/12 03:34:52;;;;;;;15.25;3.50;;;8.40;99.90;;;;;;5110733;27;20030;-79
2023/01/12 03:37:28;;;;;;;23.35;4.40;;;8.70;99.90;;;;;;5116231;27;20030;-78
2023/01/12 03:40:04;;;;;;;17.60;3.75;;;9.30;99.90;;;;;;5112454;27;20232;-79
2023/01/12 03:42:51;;;;;;;15.38;3.78;;;8.60;99.90;;;;;;5110576;27;20027;-78
2023/01/12 03:45:26;;;;;;;21.55;4.35;;;8.60;99.90;;;;;;5108534;27;20034;-78
2023/01/12 03:47:59;;;;;;;;;;;9.30;99.90;;;;;;5115431;27;20078;-79
2023/01/12 03:50:32;;;;;;;18.70;4.10;;;9.30;99.90;;;;;;5127266;27;19919;-78
2023/01/12 03:53:01;;;;;;;18.48;3.38;;;9.20;99.90;;;;;;5111832;27;20039;-78
2023/01/12 03:55:28;;;;;;;17.17;3.72;;;8.70;99.90;;;;;;5121680;27;20063;-78
2023/01/12 03:57:56;;;;;;;19.08;3.70;;;9.40;99.90;;;;;;5127846;27;20043;-78
2023/01/12 04:00:23;;;;;;;19.35;3.67;;;8.80;99.90;;;;;;5108313;27;20330;-78
2023/01/12 04:02:49;;;;;;;16.98;3.33;;;9.60;99.90;;;;;;5109795;27;20034;-78
2023/01/12 04:05:15;;;;;;;16.23;2.85;;;9.40;99.90;;;;;;5109587;28;20035;-79
2023/01/12 04:07:41;;;;;;;19.92;3.15;;;9.20;99.90;;;;;;5117059;28;20030;-78
2023/01/12 04:10:07;;;;;;;15.30;3.28;;;9.10;99.90;;;;;;5109676;27;20023;-78
2023/01/12 04:12:33;;;;;;;16.40;3.05;;;9.50;99.90;;;;;;5114171;28;20351;-79
2023/01/12 04:14:58;;;;;;;20.05;3.65;;;9.60;99.90;;;;;;5106447;27;20027;-78
2023/01/12 04:17:26;;;;;;;16.50;2.85;;;9.50;99.90;;;;;;5092770;28;20047;-79
2023/01/12 04:19:52;;;;;;;13.68;3.03;;;9.40;99.90;;;;;;5122634;27;20035;-78
2023/01/12 04:25:03;;;;;;;19.75;3.47;;;8.80;99.90;;;;;;5124721;27;20047;-78
2023/01/12 04:27:30;;;;;;;9.90;2.40;;;9.40;99.90;;;;;;5093896;28;20033;-79
2023/01/12 04:29:56;;;;;;;13.52;3.03;;;9.50;99.90;;;;;;5095103;27;20159;-78
2023/01/12 04:32:22;;;;;;;16.27;3.10;;;8.90;99.90;;;;;;5102883;28;20043;-78
2023/01/12 04:34:48;;;;;;;11.23;3.70;;;8.90;99.90;;;;;;5120672;28;20023;-78
2023/01/12 04:37:14;;;;;;;13.50;2.55;;;9.00;99.90;;;;;;5128887;27;20034;-77
2023/01/12 04:39:39;;;;;;;13.13;3.15;;;9.10;99.90;;;;;;5106377;27;20066;-78
2023/01/12 04:42:59;;;;;;;10.15;2.90;;;9.10;99.90;;;;;;5124459;27;20046;-78
2023/01/12 04:44:51;;;;;;;10.75;2.58;;;9.50;99.90;;;;;;5126920;27;20118;-77
2023/01/12 04:47:16;;;;;;;13.07;2.38;;;9.50;99.90;;;;;;5112042;27;21666;-78
2023/01/12 04:49:42;;;;;;;7.78;2.20;;;9.00;99.90;;;;;;5101877;28;20039;-77
2023/01/12 04:52:07;;;;;;;9.45;2.50;;;8.80;99.90;;;;;;5096780;27;20034;-79
2023/01/12 04:54:33;;;;;;;10.15;2.42;;;9.40;99.90;;;;;;5104926;27;20043;-76
2023/01/12 04:56:59;;;;;;;8.88;1.85;;;9.50;99.90;;;;;;5104788;28;20031;-77
2023/01/12 04:59:25;;;;;;;8.98;2.25;;;9.50;99.90;;;;;;5115658;28;20059;-77
2023/01/12 05:01:50;;;;;;;13.00;2.13;;;9.40;99.90;;;;;;5115532;27;20037;-77
2023/01/12 05:04:16;;;;;;;6.20;1.80;;;9.40;99.90;;;;;;5106178;27;20322;-77
2023/01/12 05:06:41;;;;;;;8.52;1.95;;;9.50;99.90;;;;;;5109187;28;20027;-77
2023/01/12 05:11:52;;;;;;;6.43;2.03;;;8.80;99.90;;;;;;5137353;27;20035;-79
2023/01/12 05:14:17;;;;;;;5.63;1.38;;;9.20;99.90;;;;;;5105865;28;20098;-79
2023/01/12 05:16:43;;;;;;;4.97;1.73;;;9.40;99.90;;;;;;5096078;28;20244;-78
2023/01/12 05:19:09;;;;;;;3.30;1.65;;;9.10;99.90;;;;;;5103167;28;20036;-77
2023/01/12 05:21:35;;;;;;;7.43;2.00;;;8.80;99.90;;;;;;5102572;28;20089;-77
2023/01/12 05:24:00;;;;;;;4.28;1.90;;;9.30;99.90;;;;;;5086049;28;20077;-76
2023/01/12 05:26:26;;;;;;;4.13;1.17;;;8.70;99.90;;;;;;5112531;27;20341;-78
2023/01/12 05:28:52;;;;;;;3.65;1.90;;;8.80;99.90;;;;;;5123448;27;20032;-77
2023/01/12 05:31:18;;;;;;;5.13;1.45;;;9.20;99.90;;;;;;5125571;27;20091;-76
2023/01/12 05:33:44;;;;;;;4.35;1.25;;;9.30;99.90;;;;;;5127044;27;20336;-79
2023/01/12 05:36:12;;;;;;;7.53;1.65;;;8.70;99.90;;;;;;5138674;27;20299;-78
2023/01/12 05:38:38;;;;;;;3.22;1.73;;;9.00;99.90;;;;;;5107498;27;20031;-78
2023/01/12 05:41:06;;;;;;;6.43;1.85;;;9.10;99.90;;;;;;5127043;27;20066;-78
2023/01/12 05:43:50;;;;;;;3.20;1.00;;;9.00;99.90;;;;;;5092072;28;20096;-78
2023/01/12 05:46:27;;;;;;;3.00;1.30;;;9.20;99.90;;;;;;5110030;27;20046;-80
2023/01/12 05:48:55;;;;;;;4.03;1.75;;;8.70;99.90;;;;;;5107123;27;20330;-78
2023/01/12 05:51:21;;;;;;;5.13;2.17;;;10.70;99.90;;;;;;5116877;27;20040;-78
2023/01/12 05:53:47;;;;;;;5.40;2.25;;;8.60;99.90;;;;;;5102125;28;20028;-78
2023/01/12 05:56:22;;;;;;;5.90;2.10;;;9.20;99.90;;;;;;5108385;27;20038;-79
2023/01/12 05:58:53;;;;;;;4.53;1.60;;;9.30;99.90;;;;;;5136996;27;20034;-77
2023/01/12 06:01:20;;;;;;;4.93;1.67;;;8.90;99.90;;;;;;5124580;27;20050;-80
2023/01/12 06:03:51;;;;;;;4.00;1.70;;;9.20;99.90;;;;;;5118992;27;20034;-78
2023/01/12 06:06:18;;;;;;;6.78;2.20;;;9.20;99.90;;;;;;5126477;27;20043;-78
2023/01/12 06:08:45;;;;;;;4.75;1.80;;;9.00;99.90;;;;;;5108304;27;20080;-78
2023/01/12 06:13:55;;;;;;;3.17;1.50;;;8.80;99.90;;;;;;5129063;27;20115;-78
2023/01/12 06:13:57;;;;;;;4.57;1.45;;;9.20;99.90;;;;;;5122921;27;20071;-79
2023/01/12 06:19:45;;;;;;;5.25;1.83;;;7.70;99.90;;;;;;5144040;27;20038;-80
2023/01/12 06:22:11;;;;;;;3.03;1.58;;;8.20;99.90;;;;;;5123626;27;20043;-78
2023/01/12 06:24:36;;;;;;;4.22;1.80;;;9.10;99.90;;;;;;5123941;27;20071;-78
2023/01/12 06:27:02;;;;;;;4.07;1.50;;;9.20;99.90;;;;;;5109374;27;20038;-79
2023/01/12 06:29:28;;;;;;;5.47;1.50;;;9.30;99.90;;;;;;5084000;28;20055;-78
2023/01/12 06:31:54;;;;;;;4.25;1.58;;;8.90;99.90;;;;;;5128292;27;20046;-79
2023/01/12 06:34:19;;;;;;;4.80;1.73;;;9.00;99.90;;;;;;5119136;27;20053;-78
2023/01/12 06:36:50;;;;;;;3.60;1.60;;;9.50;99.90;;;;;;5107661;27;20027;-79
2023/01/12 06:39:16;;;;;;;3.90;1.52;;;9.30;99.90;;;;;;5113713;27;20226;-80
2023/01/12 06:44:25;;;;;;;1.70;1.17;;;9.10;99.90;;;;;;5107586;27;20047;-79
2023/01/12 06:46:51;;;;;;;3.97;1.05;;;9.70;99.90;;;;;;5125527;27;20107;-77
2023/01/12 06:49:17;;;;;;;1.88;1.13;;;9.20;99.90;;;;;;5088201;27;20099;-76
2023/01/12 06:51:43;;;;;;;1.50;1.00;;;9.60;99.90;;;;;;5107888;27;20402;-77
2023/01/12 06:54:09;;;;;;;1.33;1.00;;;9.80;99.90;;;;;;5117625;28;20036;-78
2023/01/12 06:56:34;;;;;;;2.78;1.02;;;9.50;99.90;;;;;;5105023;28;20070;-78
2023/01/12 06:59:00;;;;;;;4.10;1.30;;;9.90;99.90;;;;;;5103416;27;20031;-77
2023/01/12 07:01:28;;;;;;;2.38;1.02;;;9.90;99.90;;;;;;5094423;28;20032;-77
2023/01/12 07:03:53;;;;;;;2.15;1.15;;;9.50;99.90;;;;;;5104021;27;20023;-78
2023/01/12 07:06:19;;;;;;;3.50;0.95;;;9.40;99.90;;;;;;5105840;27;20031;-77
2023/01/12 07:08:45;;;;;;;2.28;1.52;;;9.60;99.90;;;;;;5116601;27;20054;-76
2023/01/12 07:11:13;;;;;;;3.50;1.38;;;10.00;99.90;;;;;;5110173;27;20027;-77
2023/01/12 07:13:39;;;;;;;5.05;2.17;;;10.00;99.90;;;;;;5134007;27;20306;-78
2023/01/12 07:16:06;;;;;;;3.03;1.88;;;9.70;99.90;;;;;;5129198;27;20031;-77
2023/01/12 07:18:32;;;;;;;3.13;1.90;;;9.70;99.90;;;;;;5089791;27;20285;-76
2023/01/12 07:20:57;;;;;;;4.20;2.75;;;10.10;99.90;;;;;;5124626;27;20526;-77
2023/01/12 07:23:23;;;;;;;6.00;2.30;;;10.30;99.90;;;;;;5135539;27;20043;-78
2023/01/12 07:25:49;;;;;;;5.63;2.95;;;10.40;99.90;;;;;;5117415;27;20027;-78
2023/01/12 07:28:15;;;;;;;5.57;2.90;;;10.00;99.90;;;;;;5108650;28;20028;-77
2023/01/12 07:30:46;;;;;;;7.45;2.90;;;10.10;99.90;;;;;;5090648;27;20270;-77
2023/01/12 07:33:14;;;;;;;6.88;2.97;;;10.60;99.90;;;;;;5108203;27;20399;-78
2023/01/12 07:35:41;;;;;;;8.38;3.25;;;10.60;99.90;;;;;;5121854;27;20035;-77
2023/01/12 07:38:06;;;;;;;8.07;2.85;;;10.20;99.90;;;;;;5143829;27;20027;-78
2023/01/12 07:40:32;;;;;;;9.93;3.63;;;10.40;99.90;;;;;;5106975;27;20256;-78
2023/01/12 07:43:00;;;;;;;8.85;3.33;;;10.50;99.90;;;;;;5095784;28;20106;-77
2023/01/12 07:45:26;;;;;;;5.32;2.78;;;10.30;99.90;;;;;;5106648;28;20106;-77
2023/01/12 07:47:53;;;;;;;9.40;2.88;;;10.50;99.90;;;;;;5080203;28;20035;-78
2023/01/12 07:50:19;;;;;;;6.72;2.45;;;10.90;99.90;;;;;;5139230;27;20046;-77
2023/01/12 07:52:45;;;;;;;7.40;2.67;;;10.50;99.90;;;;;;5089943;28;20072;-77
2023/01/12 07:55:11;;;;;;;9.20;3.13;;;11.00;99.90;;;;;;5107338;28;20293;-77
2023/01/12 07:57:36;;;;;;;11.60;3.13;;;11.00;99.90;;;;;;5098138;27;20031;-77
2023/01/12 08:00:05;;;;;;;10.93;2.80;;;11.10;99.90;;;;;;5106444;27;20261;-77
2023/01/12 08:02:34;;;;;;;13.90;3.70;;;10.80;99.90;;;;;;5094150;28;20043;-77
2023/01/12 08:04:59;;;;;;;13.30;2.75;;;10.70;99.90;;;;;;5085011;28;20345;-78
2023/01/12 08:07:25;;;;;;;17.50;3.70;;;11.10;99.90;;;;;;5120387;27;20039;-77
2023/01/12 08:09:51;;;;;;;13.38;2.88;;;10.90;99.90;;;;;;5100856;27;20023;-78
2023/01/12 08:12:17;;;;;;;14.43;3.03;;;11.20;99.90;;;;;;5100461;27;20031;-77
2023/01/12 08:14:42;;;;;;;15.55;3.03;;;11.20;99.90;;;;;;5071390;28;20034;-77
2023/01/12 08:17:26;;;;;;;24.42;3.20;;;11.20;99.90;;;;;;5120519;27;20024;-77
2023/01/12 08:33:13;;;;;;;19.67;3.25;;;10.50;99.90;;;;;;5020190;28;20037;-78
2023/01/12 08:44:34;;;;;;;;;;;;;;;;;;;;;
2023/01/12 08:48:04;;;;;;;21.05;3.08;;;12.20;99.90;;;;;;4772237;30;20042;-77
2023/01/12 08:51:33;;;;;;;19.52;2.83;;;12.40;99.90;;;;;;4786767;30;20084;-77
2023/01/12 08:54:20;;;;;;;22.75;3.97;;;11.60;99.90;;;;;;4813171;29;20436;-77
2023/01/12 08:57:16;;;;;;;22.33;3.47;;;9.90;99.90;;;;;;4854954;29;20362;-76
2023/01/12 09:01:01;;;;;;;18.77;3.00;;;12.20;99.90;;;;;;4936761;29;20079;-78
2023/01/12 09:03:38;;;;;;;12.02;2.30;;;11.10;99.90;;;;;;4941530;28;20115;-77
2023/01/12 09:06:16;;;;;;;14.50;2.78;;;10.50;99.90;;;;;;5006783;28;20082;-77
2023/01/12 09:08:43;;;;;;;13.13;3.10;;;11.60;99.90;;;;;;5063513;28;20028;-77
2023/01/12 09:11:09;;;;;;;12.50;2.88;;;11.10;99.90;;;;;;5046652;28;20071;-77
2023/01/12 09:13:35;;;;;;;17.25;2.50;;;11.40;99.90;;;;;;5028554;28;20103;-77
2023/01/12 09:16:07;;;;;;;12.73;3.08;;;9.60;99.90;;;;;;5055075;28;20032;-77
2023/01/12 09:18:33;;;;;;;18.05;3.45;;;11.80;99.90;;;;;;5043477;28;20036;-77
2023/01/12 09:21:12;;;;;;;11.63;2.53;;;11.70;99.90;;;;;;5062293;28;20068;-77
2023/01/12 09:23:38;;;;;;;16.02;2.60;;;11.80;99.90;;;;;;5079595;28;20306;-76
2023/01/12 09:26:10;;;;;;;12.38;3.20;;;11.80;99.90;;;;;;5126608;28;20034;-77
2023/01/12 09:28:36;;;;;;;16.80;2.90;;;11.10;99.90;;;;;;5124141;28;20042;-77
2023/01/12 09:31:08;;;;;;;15.90;3.22;;;11.60;99.90;;;;;;5109140;28;20206;-77
2023/01/12 09:33:36;;;;;;;17.45;3.03;;;11.80;99.90;;;;;;5139932;27;20023;-78
2023/01/12 09:36:08;;;;;;;18.42;3.67;;;11.30;99.90;;;;;;5121497;28;20220;-77
2023/01/12 09:38:35;;;;;;;15.30;2.33;;;11.50;99.90;;;;;;5138391;28;20033;-77
2023/01/12 09:41:08;;;;;;;16.02;2.72;;;11.40;99.90;;;;;;5119442;28;20186;-74
2023/01/12 09:49:48;;;;;;;18.20;3.30;;;11.30;99.90;;;;;;5139396;27;20241;-77
2023/01/12 09:52:22;;;;;;;17.17;2.65;;;11.30;99.90;;;;;;5135255;28;20046;-78
2023/01/12 09:54:50;;;;;;;13.90;3.17;;;11.30;99.90;;;;;;5119296;28;20205;-78
2023/01/12 09:57:40;;;;;;;16.20;3.15;;;12.00;99.90;;;;;;5106986;28;20034;-77
2023/01/12 10:00:12;;;;;;;13.70;2.47;;;12.00;99.90;;;;;;5121610;28;20070;-77
2023/01/12 10:02:42;;;;;;;14.68;2.67;;;12.10;99.90;;;;;;5126509;28;20345;-77
2023/01/12 10:05:21;;;;;;;14.55;2.45;;;11.80;99.90;;;;;;5109304;28;20051;-78
2023/01/12 10:07:48;;;;;;;12.90;2.80;;;11.80;99.90;;;;;;5101866;28;20682;-78
2023/01/12 10:10:14;;;;;;;15.05;2.35;;;11.40;99.90;;;;;;5098514;28;20499;-77
2023/01/12 10:12:48;;;;;;;13.07;2.28;;;11.50;99.90;;;;;;5122029;27;20030;-78
2023/01/12 10:15:29;;;;;;;11.52;3.05;;;12.10;99.90;;;;;;5124157;27;20040;-77
2023/01/12 10:18:19;;;;;;;11.70;2.58;;;12.20;99.90;;;;;;5107160;28;20231;-77
2023/01/12 10:20:45;;;;;;;16.02;2.33;;;11.90;99.90;;;;;;5112280;28;20043;-77
2023/01/12 10:23:23;;;;;;;11.15;2.92;;;11.50;99.90;;;;;;5113534;27;20089;-78
2023/01/12 10:26:20;;;;;;;10.75;2.17;;;12.10;99.90;;;;;;5124678;27;20419;-78
2023/01/12 10:28:48;;;;;;;10.68;2.58;;;11.60;99.90;;;;;;5111972;28;20067;-78
2023/01/12 10:31:18;;;;;;;11.40;2.20;;;11.50;99.90;;;;;;5104914;27;20057;-78
2023/01/12 10:34:06;;;;;;;11.18;2.45;;;12.20;99.90;;;;;;5109370;27;20035;-77
2023/01/12 10:36:34;;;;;;;11.65;2.60;;;11.40;99.90;;;;;;5121301;27;20232;-76
2023/01/12 10:39:02;;;;;;;12.40;2.83;;;11.40;99.90;;;;;;5114380;27;20098;-76
2023/01/12 10:41:33;;;;;;;14.98;2.80;;;11.90;99.90;;;;;;5109423;27;20101;-77
2023/01/12 10:43:58;;;;;;;12.52;2.92;;;11.90;99.90;;;;;;5110047;27;20030;-77
2023/01/12 10:46:27;;;;;;;16.73;3.42;;;12.20;99.90;;;;;;5138983;27;20027;-77
2023/01/12 10:49:13;;;;;;;11.30;2.40;;;11.60;99.90;;;;;;5108682;27;20110;-78
2023/01/12 10:52:00;;;;;;;9.05;2.30;;;11.60;99.90;;;;;;5139006;27;20034;-79
2023/01/12 10:54:32;;;;;;;8.00;2.38;;;11.70;99.90;;;;;;5126408;27;20052;-77
2023/01/12 10:57:02;;;;;;;13.35;2.28;;;11.50;99.90;;;;;;5123380;27;20028;-77
2023/01/12 10:59:31;;;;;;;10.60;2.47;;;11.50;99.90;;;;;;5126772;27;20047;-77
2023/01/12 11:02:07;;;;;;;11.82;2.30;;;12.10;99.90;;;;;;5115506;27;20039;-78
2023/01/12 11:04:52;;;;;;;13.40;2.30;;;12.00;99.90;;;;;;5104561;27;20046;-77
2023/01/12 11:07:29;;;;;;;11.05;2.10;;;11.50;99.90;;;;;;5123816;27;20348;-78
2023/01/12 11:10:30;;;;;;;10.38;2.50;;;11.30;99.90;;;;;;5079637;27;20107;-79
2023/01/12 11:12:58;;;;;;;14.18;2.75;;;11.60;99.90;;;;;;5105501;27;20062;-77
2023/01/12 11:15:26;;;;;;;10.57;2.88;;;11.30;99.90;;;;;;5126651;27;20045;-77
2023/01/12 11:18:19;;;;;;;10.77;1.98;;;11.40;99.90;;;;;;5093726;27;20039;-78
2023/01/12 11:20:54;;;;;;;12.07;2.15;;;12.10;99.90;;;;;;5119279;27;20027;-78
2023/01/12 11:23:32;;;;;;;;;;;11.30;99.90;;;;;;5124645;27;20059;-80
2023/01/12 11:26:01;;;;;;;13.63;2.33;;;11.40;99.90;;;;;;5110127;27;19971;-78
2023/01/12 11:28:37;;;;;;;15.35;2.85;;;12.10;99.90;;;;;;5124122;27;21371;-78
2023/01/12 11:31:20;;;;;;;7.95;2.13;;;12.20;99.90;;;;;;5115633;27;20403;-80
2023/01/12 11:33:55;;;;;;;15.25;2.80;;;12.30;99.90;;;;;;5129662;27;20303;-78
2023/01/12 11:36:33;;;;;;;12.88;2.35;;;11.90;99.90;;;;;;5127158;27;20147;-79
2023/01/12 11:39:01;;;;;;;13.32;2.40;;;12.40;99.90;;;;;;5107620;27;20038;-79
2023/01/12 11:45:00;;;;;;;18.10;4.00;;;12.20;99.90;;;;;;5108059;27;20039;-78
2023/01/12 11:47:48;;;;;;;18.35;3.00;;;12.20;99.90;;;;;;5106534;28;20031;-78
2023/01/12 11:50:23;;;;;;;8.57;2.45;;;12.20;99.90;;;;;;5131136;27;20039;-79
2023/01/12 11:52:50;;;;;;;9.80;1.95;;;12.30;99.90;;;;;;5133628;27;20102;-78
2023/01/12 11:55:30;;;;;;;10.55;2.10;;;11.80;99.90;;;;;;5104223;27;20019;-78
2023/01/12 11:58:09;;;;;;;8.95;1.95;;;11.80;99.90;;;;;;5131072;27;20100;-78
2023/01/12 12:00:41;;;;;;;12.40;2.22;;;12.50;99.90;;;;;;5111555;27;20461;-78
2023/01/12 12:03:33;;;;;;;12.80;2.58;;;12.50;99.90;;;;;;5105025;28;20814;-78
2023/01/12 12:06:14;;;;;;;11.30;2.42;;;12.40;99.90;;;;;;5117925;27;20032;-79
2023/01/12 12:09:14;;;;;;;14.45;2.47;;;12.60;99.90;;;;;;5136762;27;20031;-77
2023/01/12 12:12:01;;;;;;;14.70;2.63;;;12.10;99.90;;;;;;5082195;27;20143;-78
2023/01/12 12:14:51;;;;;;;9.80;2.53;;;12.80;99.90;;;;;;5126058;27;20055;-77
2023/01/12 12:17:32;;;;;;;7.25;1.58;;;12.10;99.90;;;;;;5128213;27;20018;-77
2023/01/12 12:20:22;;;;;;;12.85;2.95;;;12.60;99.90;;;;;;5104106;27;20043;-78
2023/01/12 12:23:02;;;;;;;11.23;2.03;;;12.10;99.90;;;;;;5110374;27;20101;-77
2023/01/12 12:25:35;;;;;;;9.23;2.60;;;12.60;99.90;;;;;;5132393;27;20043;-78
2023/01/12 12:28:32;;;;;;;10.75;2.45;;;12.50;99.90;;;;;;5104357;27;20031;-76
2023/01/12 12:31:41;;;;;;;7.95;2.78;;;12.30;99.90;;;;;;5120066;27;20146;-77
2023/01/12 12:34:29;;;;;;;8.95;2.13;;;11.90;99.90;;;;;;5101771;27;20036;-77
2023/01/12 12:37:34;;;;;;;14.05;2.70;;;12.40;99.90;;;;;;5138610;27;20072;-77
2023/01/12 12:40:31;;;;;;;12.48;2.60;;;12.50;99.90;;;;;;5133796;27;20043;-76
2023/01/12 12:46:13;;;;;;;9.68;2.00;;;12.50;99.90;;;;;;5119810;27;20046;-77
2023/01/12 12:49:04;;;;;;;10.98;2.00;;;12.50;99.90;;;;;;5138018;27;20240;-77
2023/01/12 12:51:33;;;;;;;12.07;2.28;;;12.40;99.90;;;;;;5120078;27;20035;-77
2023/01/12 12:54:02;;;;;;;9.77;2.63;;;11.80;99.90;;;;;;5120218;27;20027;-77
2023/01/12 12:56:32;;;;;;;9.30;1.75;;;11.60;99.90;;;;;;5103185;27;20354;-77
2023/01/12 12:59:02;;;;;;;8.25;2.00;;;12.10;99.90;;;;;;5114684;28;20039;-77
2023/01/12 13:01:28;;;;;;;9.93;2.05;;;11.50;99.90;;;;;;5120894;27;20038;-77
2023/01/12 13:03:57;;;;;;;12.27;1.95;;;11.90;99.90;;;;;;5120480;27;20112;-76
2023/01/12 13:06:26;;;;;;;12.55;2.72;;;11.50;99.90;;;;;;5109212;27;20031;-76
2023/01/12 13:08:54;;;;;;;15.27;3.35;;;12.30;99.90;;;;;;5120830;27;20097;-76
2023/01/12 13:11:40;;;;;;;13.18;2.38;;;12.30;99.90;;;;;;5113601;28;20265;-76
2023/01/12 13:14:28;;;;;;;11.27;1.85;;;12.00;99.90;;;;;;5103525;28;20081;-76
2023/01/12 13:17:17;;;;;;;12.80;2.42;;;12.10;99.90;;;;;;5114267;28;20032;-77
2023/01/12 13:19:50;;;;;;;14.43;2.75;;;12.20;99.90;;;;;;5112108;28;20089;-76
2023/01/12 13:22:31;;;;;;;13.00;2.33;;;11.50;99.90;;;;;;5125101;28;20136;-78
2023/01/12 13:25:19;;;;;;;10.10;2.22;;;12.10;99.90;;;;;;5117406;28;20087;-77
2023/01/12 13:27:59;;;;;;;10.45;2.67;;;11.60;99.90;;;;;;5114853;28;20391;-77
2023/01/12 13:30:27;;;;;;;10.40;2.28;;;11.50;99.90;;;;;;5117518;28;20042;-77
2023/01/12 13:32:59;;;;;;;14.00;2.67;;;12.20;99.90;;;;;;5128094;28;20311;-77
2023/01/12 13:35:34;;;;;;;11.13;2.17;;;11.50;99.90;;;;;;5110662;28;20244;-78
2023/01/12 13:38:10;;;;;;;;;;;12.00;99.90;;;;;;5120003;28;20067;-77
2023/01/12 13:40:37;;;;;;;9.63;2.08;;;11.10;99.90;;;;;;5128385;28;19918;-78
2023/01/12 13:43:14;;;;;;;8.05;2.13;;;12.10;99.90;;;;;;5099945;28;20062;-78
2023/01/12 13:45:52;;;;;;;13.05;3.30;;;12.10;99.90;;;;;;5103223;28;20089;-76
2023/01/12 13:48:18;;;;;;;12.65;2.88;;;11.50;99.90;;;;;;5134784;27;20404;-76
2023/01/12 13:50:53;;;;;;;11.55;2.05;;;11.50;99.90;;;;;;5089890;27;20239;-77
2023/01/12 13:53:21;;;;;;;;;;;12.20;99.90;;;;;;5121296;27;20086;-76
2023/01/12 13:55:56;;;;;;;10.65;2.08;;;12.20;99.90;;;;;;5124178;27;20222;-78
2023/01/12 13:58:21;;;;;;;9.02;2.08;;;12.10;99.90;;;;;;5112019;27;20233;-78
2023/01/12 14:00:59;;;;;;;11.48;2.53;;;11.60;99.90;;;;;;5123903;27;20039;-78
2023/01/12 14:04:01;;;;;;;12.85;2.97;;;11.50;99.90;;;;;;5122328;27;20039;-77
2023/01/12 14:06:45;;;;;;;12.63;2.05;;;11.50;99.90;;;;;;5079794;28;20050;-78
2023/01/12 14:09:38;;;;;;;9.13;2.13;;;12.00;99.90;;;;;;5105990;28;20344;-76
2023/01/12 14:12:32;;;;;;;14.50;2.85;;;11.70;99.90;;;;;;5122391;27;20096;-78
2023/01/12 14:18:15;;;;;;;14.38;2.97;;;11.60;99.90;;;;;;5138735;27;20119;-76